Time;durP1;ratioP1;P1;durP2;ratioP2;P2;SDS_P1;SDS_P2;PMS_P1;PMS_P2;Temp;Humidity;BMP_temperature;BMP_pressure;BME280_temperature;BME280_humidity;BME280_pressure;Samples;Min_cycle;Max_cycle;Signal;HPM_P1;HPM_P2
2021/01/24 00:01:16;;;;;;;4.22;1.83;;;20.90;69.30;;;;;;4970440;28;96009;-47
2021/01/24 00:03:45;;;;;;;2.38;1.38;;;20.90;69.20;;;;;;4972082;28;95821;-48
2021/01/24 00:06:15;;;;;;;1.45;1.33;;;20.90;69.00;;;;;;4972587;28;95370;-42
2021/01/24 00:08:46;;;;;;;2.42;1.60;;;21.00;68.60;;;;;;4976156;28;96027;-45
2021/01/24 00:11:18;;;;;;;4.03;1.80;;;21.00;68.50;;;;;;4979515;28;96480;-47
2021/01/24 00:13:51;;;;;;;1.42;1.33;;;21.00;68.00;;;;;;4980199;28;95709;-41
2021/01/24 00:16:23;;;;;;;1.77;1.60;;;21.10;68.00;;;;;;4968116;28;95820;-46
2021/01/24 00:18:56;;;;;;;1.83;1.30;;;21.10;67.80;;;;;;4982392;28;96953;-45
2021/01/24 00:21:28;;;;;;;1.73;1.50;;;21.20;67.70;;;;;;4975993;28;95928;-45
2021/01/24 00:24:00;;;;;;;3.13;1.90;;;21.20;67.60;;;;;;4987088;28;96221;-43
2021/01/24 00:26:33;;;;;;;1.80;1.35;;;21.20;67.30;;;;;;4971752;28;99757;-41
2021/01/24 00:29:04;;;;;;;1.00;1.00;;;21.30;67.10;;;;;;4981506;28;95737;-47
2021/01/24 00:31:34;;;;;;;1.20;1.10;;;21.30;66.80;;;;;;4973298;28;95917;-48
2021/01/24 00:34:05;;;;;;;1.63;1.35;;;21.40;66.90;;;;;;4975725;28;98472;-46
2021/01/24 00:36:35;;;;;;;1.52;1.40;;;21.40;66.70;;;;;;4971847;28;96540;-46
2021/01/24 00:39:06;;;;;;;2.15;1.30;;;21.40;66.50;;;;;;4985767;28;95714;-44
2021/01/24 00:41:37;;;;;;;2.10;1.27;;;21.50;66.40;;;;;;4978918;28;95882;-48
2021/01/24 00:44:07;;;;;;;1.42;1.25;;;21.50;66.20;;;;;;4981477;28;96318;-46
2021/01/24 00:46:36;;;;;;;2.83;1.40;;;21.50;65.80;;;;;;4979098;28;95316;-47
2021/01/24 00:49:07;;;;;;;1.27;1.05;;;21.60;65.80;;;;;;4978874;28;95391;-45
2021/01/24 00:51:38;;;;;;;1.80;1.20;;;21.60;65.60;;;;;;4980977;28;96575;-46
2021/01/24 00:54:09;;;;;;;3.75;1.48;;;21.60;65.50;;;;;;4964509;28;101163;-46
2021/01/24 00:56:38;;;;;;;1.90;1.30;;;21.60;65.10;;;;;;4981923;28;96768;-47
2021/01/24 00:59:08;;;;;;;1.77;1.20;;;21.70;65.10;;;;;;4988891;28;97227;-46
2021/01/24 01:01:37;;;;;;;1.13;1.10;;;21.70;64.90;;;;;;4974946;28;95893;-46
2021/01/24 01:04:08;;;;;;;2.70;1.60;;;21.80;64.90;;;;;;4979601;28;95900;-45
2021/01/24 01:06:41;;;;;;;2.58;1.13;;;21.80;64.60;;;;;;4978444;28;95804;-45
2021/01/24 01:09:12;;;;;;;1.75;1.15;;;21.80;64.60;;;;;;4979291;28;97912;-46
2021/01/24 01:11:43;;;;;;;1.20;0.85;;;21.90;64.30;;;;;;4969441;28;97186;-46
2021/01/24 01:14:14;;;;;;;;;;;21.90;64.10;;;;;;4972664;28;96251;-49
2021/01/24 01:16:43;;;;;;;3.83;1.23;;;21.90;64.90;;;;;;4987044;28;95793;-47
2021/01/24 01:19:14;;;;;;;1.52;1.30;;;21.90;63.90;;;;;;4978013;28;95751;-46
2021/01/24 01:21:46;;;;;;;2.58;1.08;;;21.90;63.70;;;;;;4978987;28;95875;-46
2021/01/24 01:24:17;;;;;;;1.33;1.23;;;22.00;63.50;;;;;;4978227;28;95638;-45
2021/01/24 01:26:48;;;;;;;4.63;1.30;;;22.00;63.40;;;;;;4996219;28;95650;-46
2021/01/24 01:29:18;;;;;;;2.22;1.10;;;22.00;62.90;;;;;;4984363;28;95685;-44
2021/01/24 01:31:49;;;;;;;2.05;1.52;;;22.10;62.50;;;;;;4978147;28;97147;-45
2021/01/24 01:34:21;;;;;;;2.08;1.10;;;22.00;62.50;;;;;;4983167;28;95706;-43
2021/01/24 01:36:50;;;;;;;4.32;1.58;;;22.10;62.20;;;;;;4986244;28;95498;-45
2021/01/24 01:39:20;;;;;;;2.35;1.38;;;22.10;62.20;;;;;;4988959;28;97829;-46
2021/01/24 01:41:49;;;;;;;1.88;1.08;;;22.10;62.20;;;;;;4979251;28;96201;-47
2021/01/24 01:44:19;;;;;;;1.77;1.10;;;22.20;61.90;;;;;;4982062;28;95323;-46
2021/01/24 01:46:52;;;;;;;3.15;1.73;;;22.10;61.60;;;;;;4981823;28;95656;-45
2021/01/24 01:49:24;;;;;;;1.77;1.13;;;22.20;61.50;;;;;;4985612;28;96314;-46
2021/01/24 01:51:53;;;;;;;2.65;1.42;;;22.20;61.30;;;;;;4988313;28;95886;-44
2021/01/24 01:54:23;;;;;;;2.13;1.23;;;22.20;61.30;;;;;;4984706;28;95568;-46
2021/01/24 01:56:54;;;;;;;1.17;1.08;;;22.30;61.10;;;;;;4978959;28;95558;-44
2021/01/24 01:59:24;;;;;;;1.45;1.35;;;22.20;61.00;;;;;;4977068;28;95832;-47
2021/01/24 02:02:28;;;;;;;4.03;1.30;;;22.30;60.60;;;;;;4980994;28;99767;-44
2021/01/24 02:05:13;;;;;;;2.10;1.50;;;22.40;61.30;;;;;;4979282;28;95620;-46
2021/01/24 02:07:56;;;;;;;0.98;0.93;;;22.40;60.60;;;;;;4979184;28;95460;-46
2021/01/24 02:10:44;;;;;;;1.77;1.10;;;22.40;60.70;;;;;;4984831;28;95741;-46
2021/01/24 02:13:20;;;;;;;4.40;1.48;;;22.50;60.50;;;;;;4990032;28;95863;-47
2021/01/24 02:15:52;;;;;;;1.38;1.08;;;22.50;60.20;;;;;;4974898;28;95853;-44
2021/01/24 02:18:24;;;;;;;1.58;0.98;;;22.60;60.10;;;;;;4989836;28;97737;-47
2021/01/24 02:21:36;;;;;;;2.45;1.10;;;22.60;59.90;;;;;;4975418;28;95769;-46
2021/01/24 02:24:12;;;;;;;1.05;0.95;;;22.60;60.30;;;;;;4983665;28;95939;-43
2021/01/24 02:27:06;;;;;;;2.33;1.35;;;22.70;59.60;;;;;;4989667;28;97062;-43
2021/01/24 02:30:06;;;;;;;1.25;1.10;;;22.70;60.20;;;;;;4977703;28;95225;-44
2021/01/24 02:32:37;;;;;;;6.57;4.80;;;22.70;59.80;;;;;;4987127;28;95405;-44
2021/01/24 02:35:09;;;;;;;16.08;13.07;;;22.80;59.40;;;;;;4984765;28;95928;-44
2021/01/24 02:37:41;;;;;;;31.60;22.25;;;22.80;59.20;;;;;;4980417;28;95961;-43
2021/01/24 02:40:12;;;;;;;45.03;30.15;;;22.80;59.00;;;;;;4981024;28;95739;-44
2021/01/24 02:42:45;;;;;;;50.92;33.03;;;22.90;58.90;;;;;;4980755;28;95722;-44
2021/01/24 02:45:17;;;;;;;51.17;35.53;;;22.90;58.90;;;;;;4968904;27;95895;-44
2021/01/24 02:47:48;;;;;;;61.55;40.08;;;22.90;58.70;;;;;;4974216;28;95611;-43
2021/01/24 02:50:19;;;;;;;59.08;41.55;;;23.00;58.70;;;;;;4990859;28;95774;-44
2021/01/24 02:52:51;;;;;;;;;;;23.00;58.60;;;;;;4997301;28;95872;-44
2021/01/24 02:55:21;;;;;;;;;;;23.00;59.30;;;;;;4991683;28;95735;-44
2021/01/24 02:57:52;;;;;;;65.82;44.85;;;23.10;59.30;;;;;;4981130;28;95806;-44
2021/01/24 03:00:23;;;;;;;63.78;43.58;;;23.10;58.30;;;;;;4984371;28;95564;-44
2021/01/24 03:02:54;;;;;;;59.53;42.65;;;23.10;58.30;;;;;;4987763;28;95700;-47
2021/01/24 03:05:25;;;;;;;63.67;43.72;;;23.10;58.30;;;;;;4981240;28;96357;-46
2021/01/24 03:07:56;;;;;;;56.22;40.95;;;23.20;58.10;;;;;;4988708;28;95705;-48
2021/01/24 03:10:27;;;;;;;58.95;43.35;;;23.20;57.90;;;;;;4988586;28;95666;-45
2021/01/24 03:13:16;;;;;;;67.68;44.67;;;23.20;57.80;;;;;;4977534;28;95615;-45
2021/01/24 03:15:51;;;;;;;58.63;43.45;;;23.30;58.20;;;;;;4980819;28;95881;-45
2021/01/24 03:18:24;;;;;;;61.17;41.53;;;23.30;57.80;;;;;;4987771;28;95765;-46
2021/01/24 03:20:58;;;;;;;60.15;41.45;;;23.40;57.60;;;;;;4978116;28;95851;-44
2021/01/24 03:23:32;;;;;;;61.33;40.63;;;23.40;57.40;;;;;;4988950;28;95527;-45
2021/01/24 03:26:03;;;;;;;58.90;40.35;;;23.40;57.40;;;;;;4991280;28;95935;-45
2021/01/24 03:28:38;;;;;;;57.60;37.88;;;23.50;57.60;;;;;;4989233;28;95458;-46
2021/01/24 03:31:10;;;;;;;53.63;34.38;;;23.50;57.00;;;;;;4979410;28;95674;-46
2021/01/24 03:33:41;;;;;;;51.75;35.13;;;23.50;56.90;;;;;;4979224;28;95251;-46
2021/01/24 03:36:11;;;;;;;51.40;33.63;;;23.60;56.90;;;;;;4977019;28;96964;-46
2021/01/24 03:38:40;;;;;;;52.03;33.50;;;23.60;56.90;;;;;;4976578;28;96073;-45
2021/01/24 03:41:10;;;;;;;48.40;32.40;;;23.60;56.80;;;;;;4979226;28;95607;-47
2021/01/24 03:43:39;;;;;;;42.90;30.58;;;23.70;56.90;;;;;;4988595;28;95654;-46
2021/01/24 03:46:08;;;;;;;39.58;28.88;;;23.70;56.90;;;;;;4982731;28;95907;-46
2021/01/24 03:48:38;;;;;;;38.42;26.65;;;23.80;56.90;;;;;;4972896;28;95867;-47
2021/01/24 03:51:09;;;;;;;34.83;26.58;;;23.80;56.80;;;;;;4990964;28;95539;-47
2021/01/24 03:53:40;;;;;;;42.92;26.55;;;23.80;56.70;;;;;;4972707;28;95678;-58
2021/01/24 03:56:11;;;;;;;38.13;24.50;;;23.80;56.80;;;;;;4990742;28;95800;-59
2021/01/24 03:58:40;;;;;;;33.42;22.42;;;23.90;56.70;;;;;;4986949;28;95618;-44
2021/01/24 04:01:10;;;;;;;29.27;22.17;;;24.00;56.70;;;;;;4982027;28;95470;-45
2021/01/24 04:03:41;;;;;;;32.90;21.10;;;24.00;56.60;;;;;;4990977;28;95771;-44
2021/01/24 04:06:12;;;;;;;29.98;20.95;;;24.00;56.40;;;;;;4987862;28;96119;-44
2021/01/24 04:08:43;;;;;;;29.93;19.37;;;24.10;56.90;;;;;;4954206;28;95968;-45
2021/01/24 04:11:14;;;;;;;30.88;19.23;;;24.10;56.90;;;;;;4970278;28;95724;-44
2021/01/24 04:13:46;;;;;;;;;;;24.20;57.10;;;;;;4971784;28;95386;-46
2021/01/24 04:16:17;;;;;;;27.23;19.30;;;24.20;57.40;;;;;;4978187;28;95907;-45
2021/01/24 04:18:47;;;;;;;27.05;18.33;;;24.30;57.50;;;;;;4974375;28;95500;-58
2021/01/24 04:21:20;;;;;;;29.52;17.77;;;24.30;57.60;;;;;;4979023;28;95382;-46
2021/01/24 04:23:51;;;;;;;24.75;17.55;;;24.40;57.50;;;;;;4983890;28;97346;-45
2021/01/24 04:26:21;;;;;;;27.90;17.08;;;24.40;57.40;;;;;;4984756;28;95864;-45
2021/01/24 04:28:52;;;;;;;19.27;14.65;;;24.40;57.40;;;;;;4972626;28;95952;-44
2021/01/24 04:31:23;;;;;;;21.17;13.67;;;24.50;57.20;;;;;;4965816;28;95783;-44
2021/01/24 04:33:53;;;;;;;;;;;24.50;57.10;;;;;;4974373;28;95676;-45
2021/01/24 04:36:23;;;;;;;17.38;13.25;;;24.50;57.40;;;;;;4973231;28;96098;-44
2021/01/24 04:38:52;;;;;;;18.35;12.68;;;24.50;57.00;;;;;;4982333;28;96308;-46
2021/01/24 04:41:22;;;;;;;20.75;12.43;;;24.50;56.80;;;;;;4985167;28;95748;-45
2021/01/24 04:43:52;;;;;;;17.77;11.38;;;24.60;56.80;;;;;;4988699;28;95774;-47
2021/01/24 04:46:24;;;;;;;21.40;13.13;;;24.60;56.80;;;;;;4979595;28;96612;-45
2021/01/24 04:48:54;;;;;;;19.15;12.88;;;24.70;56.80;;;;;;4987787;28;95609;-46
2021/01/24 04:51:26;;;;;;;15.55;10.73;;;24.70;56.60;;;;;;4985555;28;96254;-44
2021/01/24 04:53:56;;;;;;;12.77;9.68;;;24.70;56.40;;;;;;4979520;28;95728;-44
2021/01/24 04:56:26;;;;;;;13.70;10.45;;;24.70;56.40;;;;;;4987002;28;96460;-44
2021/01/24 04:58:55;;;;;;;12.73;9.93;;;24.80;56.00;;;;;;4971571;28;95950;-44
2021/01/24 05:01:25;;;;;;;14.40;9.23;;;24.80;55.80;;;;;;4967562;28;95862;-45
2021/01/24 05:03:55;;;;;;;13.52;9.68;;;24.80;55.60;;;;;;4988940;28;96882;-46
2021/01/24 05:06:27;;;;;;;11.23;7.78;;;24.80;55.30;;;;;;4970261;28;95882;-43
2021/01/24 05:09:02;;;;;;;12.43;8.43;;;24.80;55.10;;;;;;4978918;28;99437;-44
2021/01/24 05:11:33;;;;;;;11.55;8.60;;;24.90;55.10;;;;;;4976802;28;95720;-44
2021/01/24 05:14:18;;;;;;;11.00;7.55;;;24.90;54.80;;;;;;4976916;28;95614;-45
2021/01/24 05:16:50;;;;;;;10.52;7.63;;;24.90;54.80;;;;;;4981544;28;96179;-44
2021/01/24 05:19:22;;;;;;;9.50;6.90;;;24.90;54.20;;;;;;4985957;28;95983;-45
2021/01/24 05:21:53;;;;;;;9.27;6.93;;;24.90;53.80;;;;;;4986930;28;101986;-43
2021/01/24 05:24:25;;;;;;;8.13;6.40;;;24.90;53.60;;;;;;4987872;28;95589;-44
2021/01/24 05:26:58;;;;;;;8.38;6.45;;;25.00;53.60;;;;;;4997299;28;95867;-44
2021/01/24 05:29:29;;;;;;;6.78;6.07;;;25.00;53.40;;;;;;4973945;28;98635;-44
2021/01/24 05:32:02;;;;;;;8.00;6.28;;;25.00;53.20;;;;;;4989181;28;95716;-44
2021/01/24 05:34:34;;;;;;;6.63;5.00;;;25.00;52.80;;;;;;4988742;28;95751;-45
2021/01/24 05:37:04;;;;;;;6.53;5.65;;;25.00;52.80;;;;;;4982300;28;95979;-45
2021/01/24 05:39:33;;;;;;;6.78;5.07;;;25.00;52.70;;;;;;4976741;28;95582;-44
2021/01/24 05:42:05;;;;;;;5.25;4.53;;;25.10;52.70;;;;;;4979105;28;95621;-44
2021/01/24 05:44:35;;;;;;;6.53;4.50;;;25.10;52.50;;;;;;4981420;28;95666;-44
2021/01/24 05:47:05;;;;;;;5.70;4.75;;;25.10;52.30;;;;;;4986325;27;95964;-44
2021/01/24 05:49:37;;;;;;;6.18;4.80;;;25.10;52.10;;;;;;4983467;28;95340;-44
2021/01/24 05:52:08;;;;;;;5.57;4.88;;;25.10;51.90;;;;;;4970583;28;95801;-44
2021/01/24 05:54:48;;;;;;;;;;;25.10;51.80;;;;;;4979293;28;95695;-44
2021/01/24 05:57:24;;;;;;;4.70;4.13;;;25.10;52.30;;;;;;4984578;28;96740;-45
2021/01/24 06:00:00;;;;;;;5.68;4.15;;;25.10;51.50;;;;;;4978733;28;95960;-44
2021/01/24 06:02:31;;;;;;;4.70;4.10;;;25.20;51.40;;;;;;4984353;28;95586;-45
2021/01/24 06:05:01;;;;;;;4.93;3.92;;;25.20;51.20;;;;;;4984302;28;96031;-45
2021/01/24 06:07:35;;;;;;;5.75;4.60;;;25.20;51.10;;;;;;4983517;28;95963;-45
2021/01/24 06:10:08;;;;;;;5.97;4.10;;;25.20;50.90;;;;;;4986747;28;95772;-45
2021/01/24 06:12:45;;;;;;;4.88;3.63;;;25.20;50.70;;;;;;4987148;28;95800;-44
2021/01/24 06:15:17;;;;;;;3.75;3.38;;;25.20;50.70;;;;;;4980258;28;96421;-45
2021/01/24 06:17:50;;;;;;;3.78;3.20;;;25.20;50.40;;;;;;4990194;28;96179;-44
2021/01/24 06:20:25;;;;;;;3.53;3.22;;;25.20;50.30;;;;;;4987608;28;96434;-44
2021/01/24 06:23:24;;;;;;;3.67;3.20;;;25.20;50.10;;;;;;4982254;28;95820;-46
2021/01/24 06:26:03;;;;;;;4.38;3.50;;;25.20;50.60;;;;;;4983629;28;95713;-44
2021/01/24 06:28:37;;;;;;;4.40;3.33;;;25.20;50.20;;;;;;4973647;28;96041;-44
2021/01/24 06:31:17;;;;;;;4.53;3.83;;;25.30;50.00;;;;;;4979278;28;95999;-44
2021/01/24 06:33:52;;;;;;;;;;;25.20;50.10;;;;;;4984583;28;95614;-44
2021/01/24 06:36:22;;;;;;;5.32;3.05;;;25.30;51.10;;;;;;4988469;28;97908;-44
2021/01/24 06:38:55;;;;;;;4.45;3.22;;;25.30;49.60;;;;;;4984449;28;96564;-44
2021/01/24 06:41:46;;;;;;;3.47;2.80;;;25.30;49.50;;;;;;4984320;28;95796;-44
2021/01/24 06:44:35;;;;;;;3.65;2.95;;;25.30;50.10;;;;;;4993773;28;95638;-44
2021/01/24 06:47:28;;;;;;;3.13;2.83;;;25.30;49.80;;;;;;4981331;27;95768;-44
2021/01/24 06:49:57;;;;;;;3.75;2.72;;;25.40;49.50;;;;;;4991172;28;95960;-45
2021/01/24 06:52:27;;;;;;;3.28;2.20;;;25.40;49.20;;;;;;4978995;28;96156;-43
2021/01/24 06:55:27;;;;;;;3.63;3.03;;;25.30;49.00;;;;;;4983835;28;99189;-45
2021/01/24 06:57:58;;;;;;;2.50;2.30;;;25.40;49.50;;;;;;4986149;28;95969;-44
2021/01/24 07:00:29;;;;;;;2.30;2.10;;;25.40;48.80;;;;;;4987649;28;96037;-43
2021/01/24 07:03:17;;;;;;;2.72;2.30;;;25.40;48.80;;;;;;4990294;28;101264;-48
2021/01/24 07:05:48;;;;;;;2.55;2.33;;;25.40;49.10;;;;;;4988307;28;95731;-44
2021/01/24 07:08:34;;;;;;;2.47;2.10;;;25.40;48.80;;;;;;4979609;28;95548;-45
2021/01/24 07:11:05;;;;;;;2.30;2.10;;;25.40;49.10;;;;;;4970834;28;96124;-42
2021/01/24 07:13:36;;;;;;;;;;;25.40;48.60;;;;;;4991495;28;95856;-45
2021/01/24 07:16:07;;;;;;;2.17;2.08;;;25.50;49.10;;;;;;4978030;28;95770;-44
2021/01/24 07:18:45;;;;;;;2.70;1.98;;;25.40;48.50;;;;;;4990532;28;95554;-42
2021/01/24 07:21:18;;;;;;;3.20;2.72;;;25.40;48.50;;;;;;4972775;28;96388;-45
2021/01/24 07:23:50;;;;;;;2.95;2.33;;;25.50;48.40;;;;;;4991347;28;96082;-45
2021/01/24 07:26:20;;;;;;;;;;;25.40;48.10;;;;;;4991818;28;95792;-42
2021/01/24 07:28:50;;;;;;;3.78;1.90;;;25.40;48.60;;;;;;4976190;28;95362;-46
2021/01/24 07:31:22;;;;;;;5.25;2.78;;;25.40;46.40;;;;;;4971827;27;96519;-46
2021/01/24 07:33:53;;;;;;;7.18;4.53;;;25.30;46.40;;;;;;4980171;28;95735;-46
2021/01/24 07:36:23;;;;;;;9.30;5.40;;;25.20;46.30;;;;;;4976607;28;95391;-45
2021/01/24 07:38:52;;;;;;;7.43;4.68;;;25.10;46.80;;;;;;4979703;28;95889;-45
2021/01/24 07:41:22;;;;;;;7.88;5.65;;;25.10;47.00;;;;;;4987984;28;95955;-45
2021/01/24 07:43:52;;;;;;;12.20;5.93;;;25.00;46.90;;;;;;4983268;28;95749;-46
2021/01/24 07:46:23;;;;;;;9.00;5.53;;;25.00;47.40;;;;;;4982950;28;95917;-45
2021/01/24 07:48:52;;;;;;;;;;;25.00;47.40;;;;;;4975571;28;96148;-46
2021/01/24 07:51:22;;;;;;;5.93;4.25;;;25.00;47.50;;;;;;4972459;28;96012;-45
2021/01/24 07:53:55;;;;;;;4.57;3.78;;;24.90;46.90;;;;;;4979488;28;95861;-45
2021/01/24 07:56:27;;;;;;;5.25;3.80;;;24.90;46.90;;;;;;4979215;28;95858;-47
2021/01/24 07:58:58;;;;;;;7.00;3.97;;;24.90;46.70;;;;;;4977596;28;95220;-45
2021/01/24 08:01:28;;;;;;;6.60;3.90;;;24.90;46.20;;;;;;4978991;28;97356;-44
2021/01/24 08:04:03;;;;;;;4.90;3.00;;;24.90;46.90;;;;;;4985370;28;95881;-44
2021/01/24 08:06:37;;;;;;;4.65;3.17;;;24.80;46.10;;;;;;4980795;28;95388;-44
2021/01/24 08:09:11;;;;;;;4.85;3.58;;;24.80;46.00;;;;;;4985128;28;95936;-45
2021/01/24 08:11:44;;;;;;;3.53;3.08;;;24.80;45.80;;;;;;4989924;28;95914;-44
2021/01/24 08:14:15;;;;;;;4.88;3.25;;;24.70;45.80;;;;;;4978020;28;96318;-44
2021/01/24 08:16:49;;;;;;;3.67;3.30;;;24.70;45.80;;;;;;4974148;28;95269;-45
2021/01/24 08:19:25;;;;;;;3.95;2.78;;;24.80;46.50;;;;;;4980226;28;95833;-45
2021/01/24 08:21:57;;;;;;;3.53;2.53;;;24.90;46.60;;;;;;4977714;28;95917;-45
2021/01/24 08:24:29;;;;;;;3.03;2.28;;;24.90;46.50;;;;;;4970192;28;95732;-46
2021/01/24 08:26:59;;;;;;;3.17;2.17;;;25.00;46.70;;;;;;4976860;28;95743;-45
2021/01/24 08:29:34;;;;;;;2.60;2.35;;;25.10;46.60;;;;;;4972326;28;95629;-46
2021/01/24 08:32:06;;;;;;;3.58;2.20;;;25.10;46.70;;;;;;4970826;28;95998;-45
2021/01/24 08:34:37;;;;;;;2.92;2.30;;;25.10;46.70;;;;;;4967998;28;95922;-45
2021/01/24 08:37:08;;;;;;;2.67;1.73;;;25.10;46.70;;;;;;4977960;28;95826;-45
2021/01/24 08:39:40;;;;;;;4.63;2.00;;;25.10;46.70;;;;;;4985713;28;95784;-44
2021/01/24 08:42:09;;;;;;;4.13;1.65;;;25.20;46.90;;;;;;4976940;28;95924;-44
2021/01/24 08:44:58;;;;;;;2.45;2.00;;;25.20;47.00;;;;;;4974531;28;95819;-44
2021/01/24 08:47:28;;;;;;;4.32;2.20;;;25.20;47.10;;;;;;4975173;28;98945;-43
2021/01/24 08:50:11;;;;;;;7.57;2.28;;;25.30;47.20;;;;;;4979860;28;96497;-42
2021/01/24 08:52:42;;;;;;;2.60;2.10;;;25.30;47.40;;;;;;4974611;28;95895;-44
2021/01/24 08:55:12;;;;;;;2.33;1.70;;;25.30;47.40;;;;;;4980442;28;95863;-43
2021/01/24 08:57:41;;;;;;;6.05;2.10;;;25.30;47.50;;;;;;4977041;28;95792;-44
2021/01/24 09:00:11;;;;;;;3.78;2.03;;;25.40;47.60;;;;;;4982537;28;95261;-44
2021/01/24 09:02:42;;;;;;;2.10;1.90;;;25.40;47.70;;;;;;4992544;28;95979;-43
2021/01/24 09:05:26;;;;;;;4.78;2.05;;;25.40;47.60;;;;;;4982747;28;97997;-44
2021/01/24 09:07:56;;;;;;;2.45;2.17;;;25.40;47.70;;;;;;4983309;28;95711;-43
2021/01/24 09:10:32;;;;;;;3.55;2.25;;;25.40;47.70;;;;;;4973002;28;95919;-44
2021/01/24 09:13:03;;;;;;;3.00;1.88;;;25.40;47.80;;;;;;4975469;28;95880;-44
2021/01/24 09:15:35;;;;;;;2.47;1.55;;;25.40;47.80;;;;;;4967426;28;95510;-43
2021/01/24 09:18:06;;;;;;;3.75;2.00;;;25.40;47.70;;;;;;4973001;28;98116;-43
2021/01/24 09:20:37;;;;;;;1.40;1.30;;;25.40;47.60;;;;;;4988870;28;95666;-46
2021/01/24 09:23:09;;;;;;;1.45;1.35;;;25.40;47.60;;;;;;4979651;28;95887;-46
2021/01/24 09:25:40;;;;;;;1.80;1.40;;;25.40;47.60;;;;;;4973966;28;96086;-43
2021/01/24 09:28:09;;;;;;;1.92;1.40;;;25.50;47.70;;;;;;4968764;28;95806;-44
2021/01/24 09:30:39;;;;;;;1.92;1.50;;;25.40;47.40;;;;;;4974804;28;95418;-46
2021/01/24 09:33:09;;;;;;;3.08;1.73;;;25.50;47.30;;;;;;4980461;28;96555;-43
2021/01/24 09:35:39;;;;;;;1.75;1.38;;;25.40;47.10;;;;;;4987138;28;95641;-44
2021/01/24 09:38:09;;;;;;;3.95;1.38;;;25.40;46.90;;;;;;4983908;28;95781;-44
2021/01/24 09:40:40;;;;;;;1.88;1.65;;;25.40;46.80;;;;;;4980945;28;95825;-47
2021/01/24 09:43:10;;;;;;;2.70;1.38;;;25.40;46.80;;;;;;4982402;28;96884;-48
2021/01/24 09:45:39;;;;;;;1.48;1.15;;;25.30;46.50;;;;;;4978193;28;97961;-47
2021/01/24 09:48:12;;;;;;;;;;;25.40;46.70;;;;;;4982584;28;95698;-47
2021/01/24 09:50:44;;;;;;;1.38;1.10;;;25.30;47.00;;;;;;4988138;28;95901;-47
2021/01/24 09:53:14;;;;;;;8.23;1.58;;;25.30;46.30;;;;;;4979467;28;96695;-49
2021/01/24 09:55:43;;;;;;;2.30;1.35;;;25.30;46.20;;;;;;4983362;28;95886;-49
2021/01/24 09:58:13;;;;;;;1.20;1.10;;;25.30;46.00;;;;;;4979343;28;95694;-47
2021/01/24 10:00:43;;;;;;;2.58;1.58;;;25.30;46.00;;;;;;4979544;28;96016;-43
2021/01/24 10:03:12;;;;;;;4.35;1.50;;;25.30;45.90;;;;;;4987703;28;95965;-43
2021/01/24 10:05:45;;;;;;;2.90;1.50;;;25.20;45.80;;;;;;4984149;28;95920;-42
2021/01/24 10:08:15;;;;;;;2.90;1.30;;;25.20;46.00;;;;;;4984549;28;95880;-42
2021/01/24 10:10:47;;;;;;;2.95;1.83;;;25.20;46.10;;;;;;4990825;28;95782;-43
2021/01/24 10:13:18;;;;;;;;;;;25.20;46.20;;;;;;4986781;28;96559;-42
2021/01/24 10:15:52;;;;;;;1.95;1.42;;;25.20;46.40;;;;;;4978844;27;95813;-42
2021/01/24 10:18:23;;;;;;;1.23;1.10;;;25.10;46.30;;;;;;4982227;28;95891;-42
2021/01/24 10:20:55;;;;;;;1.48;1.30;;;25.20;46.40;;;;;;4986961;28;95639;-42
2021/01/24 10:23:26;;;;;;;1.10;1.00;;;25.10;46.50;;;;;;4989018;28;96188;-42
2021/01/24 10:25:57;;;;;;;1.85;1.08;;;25.10;46.60;;;;;;4990921;28;95634;-41
2021/01/24 10:28:28;;;;;;;2.65;1.25;;;25.10;46.70;;;;;;4980349;28;95688;-42
2021/01/24 10:30:59;;;;;;;4.85;1.45;;;25.10;46.70;;;;;;4975996;28;103870;-42
2021/01/24 10:33:29;;;;;;;2.08;1.08;;;25.10;46.80;;;;;;4976924;28;95981;-41
2021/01/24 10:35:59;;;;;;;1.53;1.43;;;25.10;47.00;;;;;;4976230;28;95763;-42
2021/01/24 10:38:29;;;;;;;2.08;1.13;;;25.10;47.20;;;;;;4985472;28;95831;-42
2021/01/24 10:40:59;;;;;;;2.85;1.20;;;25.10;47.50;;;;;;4977273;28;100828;-42
2021/01/24 10:43:28;;;;;;;4.22;1.88;;;25.10;47.80;;;;;;4983968;28;95884;-42
2021/01/24 10:45:57;;;;;;;2.80;1.17;;;25.10;48.10;;;;;;4975389;28;95912;-41
2021/01/24 10:48:27;;;;;;;1.83;1.00;;;25.10;48.40;;;;;;4976454;28;95794;-43
2021/01/24 10:50:58;;;;;;;2.17;1.40;;;25.10;48.70;;;;;;4982325;28;95765;-42
2021/01/24 10:53:28;;;;;;;1.95;1.20;;;25.10;49.00;;;;;;4981114;28;96022;-43
2021/01/24 10:55:58;;;;;;;1.77;1.35;;;25.10;49.20;;;;;;4978228;28;98092;-43
2021/01/24 10:58:28;;;;;;;1.48;1.35;;;25.10;49.50;;;;;;4985912;28;95833;-42
2021/01/24 11:00:59;;;;;;;1.38;1.10;;;25.20;49.80;;;;;;4980848;28;95247;-42
2021/01/24 11:03:30;;;;;;;2.10;1.20;;;25.10;50.00;;;;;;4986034;28;96383;-42
2021/01/24 11:06:01;;;;;;;5.10;1.25;;;25.10;50.10;;;;;;4978563;28;95754;-42
2021/01/24 11:08:33;;;;;;;1.02;1.00;;;25.10;50.50;;;;;;4985304;28;95359;-41
2021/01/24 11:11:05;;;;;;;2.22;1.17;;;25.10;50.70;;;;;;4970505;28;95637;-43
2021/01/24 11:13:36;;;;;;;1.38;0.90;;;25.10;51.00;;;;;;4986130;28;95921;-43
2021/01/24 11:16:07;;;;;;;2.50;1.00;;;25.10;51.20;;;;;;4971570;28;95373;-42
2021/01/24 11:18:41;;;;;;;2.17;1.10;;;25.10;51.50;;;;;;4963893;28;96179;-42
2021/01/24 11:21:12;;;;;;;3.00;1.20;;;25.10;51.70;;;;;;4960272;28;96658;-42
2021/01/24 11:23:43;;;;;;;;;;;25.10;52.70;;;;;;4963342;28;96486;-45
2021/01/24 11:26:13;;;;;;;3.47;1.67;;;25.00;52.00;;;;;;4964889;28;95364;-40
2021/01/24 11:28:43;;;;;;;4.88;1.33;;;25.00;53.10;;;;;;4958354;28;95356;-40
2021/01/24 11:31:14;;;;;;;3.15;1.00;;;25.00;54.80;;;;;;4959060;28;96748;-40
2021/01/24 11:33:48;;;;;;;3.13;1.10;;;25.00;54.20;;;;;;4981823;28;96930;-41
2021/01/24 11:36:19;;;;;;;4.65;1.38;;;25.00;54.10;;;;;;4982623;28;96284;-40
2021/01/24 11:38:49;;;;;;;2.75;1.23;;;25.10;54.40;;;;;;4981453;28;96257;-40
2021/01/24 11:41:25;;;;;;;1.27;1.02;;;25.00;53.60;;;;;;4975541;28;96122;-40
2021/01/24 11:43:54;;;;;;;1.30;1.10;;;25.00;54.50;;;;;;4983715;28;95900;-40
2021/01/24 11:46:24;;;;;;;1.50;1.40;;;24.90;54.90;;;;;;4977489;28;97822;-41
2021/01/24 11:48:53;;;;;;;1.83;1.33;;;24.90;56.20;;;;;;4984667;28;96534;-42
2021/01/24 11:51:23;;;;;;;4.97;1.45;;;24.90;55.80;;;;;;4981947;28;95587;-40
2021/01/24 11:53:54;;;;;;;5.50;1.33;;;25.00;55.90;;;;;;4983734;28;96421;-40
2021/01/24 11:56:24;;;;;;;1.73;1.30;;;24.90;56.10;;;;;;4977638;28;96568;-43
2021/01/24 11:58:55;;;;;;;2.20;1.55;;;24.90;56.30;;;;;;4982089;28;95787;-41
2021/01/24 12:01:24;;;;;;;2.60;1.67;;;24.90;56.70;;;;;;4979608;28;96405;-40
2021/01/24 12:03:54;;;;;;;2.75;1.35;;;24.90;56.90;;;;;;4986769;28;96029;-41
2021/01/24 12:06:25;;;;;;;7.82;1.98;;;24.90;57.30;;;;;;4980557;28;100009;-40
2021/01/24 12:08:56;;;;;;;3.75;1.15;;;25.00;57.90;;;;;;4974659;28;96024;-41
2021/01/24 12:11:27;;;;;;;7.65;1.83;;;25.00;58.40;;;;;;4981383;28;96378;-40
2021/01/24 12:13:58;;;;;;;11.63;1.80;;;24.90;59.10;;;;;;4969028;28;96573;-40
2021/01/24 12:16:29;;;;;;;9.02;1.80;;;24.90;58.90;;;;;;4965479;28;95900;-40
2021/01/24 12:19:00;;;;;;;5.88;1.88;;;24.80;59.30;;;;;;4974240;28;95446;-40
2021/01/24 12:21:31;;;;;;;7.13;2.22;;;24.80;59.50;;;;;;4979466;28;95884;-40
2021/01/24 12:24:02;;;;;;;12.60;3.00;;;24.80;59.70;;;;;;4982222;28;96990;-40
2021/01/24 12:26:33;;;;;;;14.57;2.88;;;24.80;59.60;;;;;;4977482;28;95777;-40
2021/01/24 12:29:03;;;;;;;29.50;3.92;;;24.80;60.10;;;;;;4970338;28;101078;-40
2021/01/24 12:31:33;;;;;;;30.85;3.80;;;24.70;60.30;;;;;;4967525;28;95434;-40
2021/01/24 12:34:04;;;;;;;17.15;4.03;;;24.60;60.80;;;;;;4981795;28;96402;-40
2021/01/24 12:36:33;;;;;;;29.88;3.10;;;24.60;61.00;;;;;;4981144;28;95648;-40
2021/01/24 12:39:04;;;;;;;15.82;3.05;;;24.60;61.30;;;;;;4982446;28;96870;-40
2021/01/24 12:41:34;;;;;;;22.05;2.90;;;24.50;61.30;;;;;;4983448;28;95652;-40
2021/01/24 12:44:03;;;;;;;13.60;2.55;;;24.50;61.60;;;;;;4978200;28;95878;-40
2021/01/24 12:46:36;;;;;;;;;;;24.40;61.50;;;;;;4979934;28;96351;-40
2021/01/24 12:49:05;;;;;;;13.10;2.20;;;24.40;60.60;;;;;;4979309;28;96158;-41
2021/01/24 12:51:37;;;;;;;9.57;2.33;;;24.40;61.50;;;;;;4978977;28;97020;-40
2021/01/24 12:54:07;;;;;;;13.20;2.00;;;24.30;61.80;;;;;;4978789;28;96494;-40
2021/01/24 12:56:37;;;;;;;4.47;1.90;;;24.30;61.90;;;;;;4976323;28;95924;-41
2021/01/24 12:59:07;;;;;;;4.05;1.33;;;24.30;61.90;;;;;;4983551;28;98466;-40
2021/01/24 13:01:37;;;;;;;4.25;1.63;;;24.30;61.80;;;;;;4974127;28;95893;-40
2021/01/24 13:04:07;;;;;;;5.30;1.50;;;24.20;62.00;;;;;;4973812;28;95979;-46
2021/01/24 13:06:39;;;;;;;;;;;24.20;61.80;;;;;;4981146;28;95384;-41
2021/01/24 13:09:11;;;;;;;4.70;1.80;;;24.20;60.90;;;;;;4983284;28;95818;-40
2021/01/24 13:11:44;;;;;;;4.88;1.80;;;24.20;62.20;;;;;;4983866;28;95250;-40